aviador You're here:

EPLL Decoded Metar

LODZ in POLAND
Report Time2018-04-27 02:30:00
UTC Time2018-04-27 03:04:40
Flight Rules vfr VFR
Wind230° at 03 kt
W.Decomp.*RWY 25: 2.7 kt HW 1.2 kt LCW
W.Rank230° ranks 8
Current wind is below 230° avg. (7.5)
Visibility9999 m
Phenomena:Shallow Fog
Clouds:N/A
CeilingNone
Temp03°C (ISA -11)
Dew Point03°C (100% RH)
AAT0.4°C
QNH1017 hPa
Density Alt-735 ft
Elevation604 ft
Report Wrong Elevation
Raw Report
EPLL 270230Z 23003KT 9999 MIFG NSC 03/03 Q1017=

Extra information for EPLL:More info

Metar Taf Metar & Taf Last 4 Metars F.Rules Stats Wind Profile Meteogram Temp Stats Airport Information Weather charts Add Link Nearby VenuesMetar ALERT Operation Metar Decoded Social comments